sensor_id;sensor_type;location;lat;lon;timestamp;P1;durP1;ratioP1;P2;durP2;ratioP2
70369;SDS011;57790;51.356;-2.906;2024-02-21T00:02:06;7.80;;;1.47;;
70369;SDS011;57790;51.356;-2.906;2024-02-21T00:05:06;8.10;;;1.27;;
70369;SDS011;57790;51.356;-2.906;2024-02-21T00:08:07;12.43;;;1.70;;
70369;SDS011;57790;51.356;-2.906;2024-02-21T00:11:07;9.63;;;1.73;;
70369;SDS011;57790;51.356;-2.906;2024-02-21T00:14:08;8.43;;;1.20;;
70369;SDS011;57790;51.356;-2.906;2024-02-21T00:17:08;8.60;;;1.40;;
70369;SDS011;57790;51.356;-2.906;2024-02-21T00:20:09;7.95;;;1.30;;
70369;SDS011;57790;51.356;-2.906;2024-02-21T00:23:10;7.33;;;1.30;;
70369;SDS011;57790;51.356;-2.906;2024-02-21T00:26:10;10.43;;;1.27;;
70369;SDS011;57790;51.356;-2.906;2024-02-21T00:29:11;10.23;;;1.50;;
70369;SDS011;57790;51.356;-2.906;2024-02-21T00:32:12;7.35;;;1.30;;
70369;SDS011;57790;51.356;-2.906;2024-02-21T00:35:13;7.73;;;1.10;;
70369;SDS011;57790;51.356;-2.906;2024-02-21T00:38:14;7.80;;;1.20;;
70369;SDS011;57790;51.356;-2.906;2024-02-21T00:41:14;8.37;;;1.40;;
70369;SDS011;57790;51.356;-2.906;2024-02-21T00:44:14;10.57;;;1.70;;
70369;SDS011;57790;51.356;-2.906;2024-02-21T00:47:15;7.93;;;1.20;;
70369;SDS011;57790;51.356;-2.906;2024-02-21T00:50:15;9.07;;;1.37;;
70369;SDS011;57790;51.356;-2.906;2024-02-21T00:53:15;6.47;;;1.00;;
70369;SDS011;57790;51.356;-2.906;2024-02-21T00:56:16;7.27;;;1.40;;
70369;SDS011;57790;51.356;-2.906;2024-02-21T00:59:16;8.13;;;1.20;;
70369;SDS011;57790;51.356;-2.906;2024-02-21T01:02:17;8.40;;;1.13;;
70369;SDS011;57790;51.356;-2.906;2024-02-21T01:05:17;7.60;;;1.13;;
70369;SDS011;57790;51.356;-2.906;2024-02-21T01:08:19;9.93;;;1.20;;
70369;SDS011;57790;51.356;-2.906;2024-02-21T01:11:19;7.20;;;1.17;;
70369;SDS011;57790;51.356;-2.906;2024-02-21T01:14:19;5.30;;;1.13;;
70369;SDS011;57790;51.356;-2.906;2024-02-21T01:17:20;10.05;;;1.25;;
70369;SDS011;57790;51.356;-2.906;2024-02-21T01:20:21;7.63;;;1.10;;
70369;SDS011;57790;51.356;-2.906;2024-02-21T01:23:21;4.90;;;1.20;;
70369;SDS011;57790;51.356;-2.906;2024-02-21T01:26:21;7.18;;;1.65;;
70369;SDS011;57790;51.356;-2.906;2024-02-21T01:29:22;6.80;;;1.10;;
70369;SDS011;57790;51.356;-2.906;2024-02-21T01:32:22;5.23;;;1.23;;
70369;SDS011;57790;51.356;-2.906;2024-02-21T01:35:24;8.95;;;1.35;;
70369;SDS011;57790;51.356;-2.906;2024-02-21T01:38:24;7.17;;;1.03;;
70369;SDS011;57790;51.356;-2.906;2024-02-21T01:41:25;7.90;;;1.37;;
70369;SDS011;57790;51.356;-2.906;2024-02-21T01:44:25;8.50;;;1.13;;
70369;SDS011;57790;51.356;-2.906;2024-02-21T01:47:26;5.07;;;1.20;;
70369;SDS011;57790;51.356;-2.906;2024-02-21T01:50:26;4.73;;;0.93;;
70369;SDS011;57790;51.356;-2.906;2024-02-21T01:53:33;5.70;;;0.88;;
70369;SDS011;57790;51.356;-2.906;2024-02-21T01:56:37;9.32;;;1.30;;
70369;SDS011;57790;51.356;-2.906;2024-02-21T01:59:38;8.93;;;1.13;;
70369;SDS011;57790;51.356;-2.906;2024-02-21T02:02:39;6.18;;;1.05;;
70369;SDS011;57790;51.356;-2.906;2024-02-21T02:05:48;7.90;;;1.10;;
70369;SDS011;57790;51.356;-2.906;2024-02-21T02:08:50;4.88;;;1.20;;
70369;SDS011;57790;51.356;-2.906;2024-02-21T02:11:50;8.80;;;1.20;;
70369;SDS011;57790;51.356;-2.906;2024-02-21T02:15:09;5.97;;;1.25;;
70369;SDS011;57790;51.356;-2.906;2024-02-21T02:18:10;8.93;;;1.20;;
70369;SDS011;57790;51.356;-2.906;2024-02-21T02:21:13;9.38;;;1.15;;
70369;SDS011;57790;51.356;-2.906;2024-02-21T02:24:23;7.18;;;1.13;;
70369;SDS011;57790;51.356;-2.906;2024-02-21T02:27:25;8.70;;;1.30;;
70369;SDS011;57790;51.356;-2.906;2024-02-21T02:30:26;7.80;;;1.10;;
70369;SDS011;57790;51.356;-2.906;2024-02-21T02:33:26;7.40;;;1.40;;
70369;SDS011;57790;51.356;-2.906;2024-02-21T02:36:27;6.10;;;1.00;;
70369;SDS011;57790;51.356;-2.906;2024-02-21T02:39:27;10.77;;;1.30;;
70369;SDS011;57790;51.356;-2.906;2024-02-21T02:42:27;8.20;;;1.10;;
70369;SDS011;57790;51.356;-2.906;2024-02-21T02:45:28;8.03;;;1.30;;
70369;SDS011;57790;51.356;-2.906;2024-02-21T02:48:28;7.30;;;1.20;;
70369;SDS011;57790;51.356;-2.906;2024-02-21T02:51:29;4.47;;;1.20;;
70369;SDS011;57790;51.356;-2.906;2024-02-21T02:54:29;7.33;;;1.40;;
70369;SDS011;57790;51.356;-2.906;2024-02-21T02:57:29;4.37;;;0.90;;
70369;SDS011;57790;51.356;-2.906;2024-02-21T03:00:30;5.40;;;1.10;;
70369;SDS011;57790;51.356;-2.906;2024-02-21T03:03:30;5.67;;;1.23;;
70369;SDS011;57790;51.356;-2.906;2024-02-21T03:06:31;6.77;;;1.40;;
70369;SDS011;57790;51.356;-2.906;2024-02-21T03:09:31;6.10;;;1.00;;
70369;SDS011;57790;51.356;-2.906;2024-02-21T03:12:31;5.00;;;0.87;;
70369;SDS011;57790;51.356;-2.906;2024-02-21T03:15:32;6.32;;;0.95;;
70369;SDS011;57790;51.356;-2.906;2024-02-21T03:18:32;6.93;;;1.23;;
70369;SDS011;57790;51.356;-2.906;2024-02-21T03:21:33;6.17;;;1.10;;
70369;SDS011;57790;51.356;-2.906;2024-02-21T03:24:33;5.77;;;0.93;;
70369;SDS011;57790;51.356;-2.906;2024-02-21T03:27:34;5.23;;;1.00;;
70369;SDS011;57790;51.356;-2.906;2024-02-21T03:30:34;3.53;;;0.90;;
70369;SDS011;57790;51.356;-2.906;2024-02-21T03:33:34;8.00;;;0.93;;
70369;SDS011;57790;51.356;-2.906;2024-02-21T03:36:35;4.40;;;0.90;;
70369;SDS011;57790;51.356;-2.906;2024-02-21T03:39:35;6.83;;;1.13;;
70369;SDS011;57790;51.356;-2.906;2024-02-21T03:42:37;7.60;;;1.30;;
70369;SDS011;57790;51.356;-2.906;2024-02-21T03:45:37;4.13;;;1.00;;
70369;SDS011;57790;51.356;-2.906;2024-02-21T03:48:38;5.83;;;1.20;;
70369;SDS011;57790;51.356;-2.906;2024-02-21T03:51:38;4.67;;;1.00;;
70369;SDS011;57790;51.356;-2.906;2024-02-21T03:54:39;5.90;;;1.13;;
70369;SDS011;57790;51.356;-2.906;2024-02-21T03:57:39;7.27;;;1.10;;
70369;SDS011;57790;51.356;-2.906;2024-02-21T04:00:39;5.53;;;1.00;;
70369;SDS011;57790;51.356;-2.906;2024-02-21T04:03:40;5.50;;;1.10;;
70369;SDS011;57790;51.356;-2.906;2024-02-21T04:06:47;6.37;;;1.10;;
70369;SDS011;57790;51.356;-2.906;2024-02-21T04:09:48;4.57;;;0.98;;
70369;SDS011;57790;51.356;-2.906;2024-02-21T04:12:48;6.63;;;0.90;;
70369;SDS011;57790;51.356;-2.906;2024-02-21T04:15:50;5.72;;;1.30;;
70369;SDS011;57790;51.356;-2.906;2024-02-21T04:18:50;4.10;;;0.90;;
70369;SDS011;57790;51.356;-2.906;2024-02-21T04:21:51;4.47;;;1.07;;
70369;SDS011;57790;51.356;-2.906;2024-02-21T04:24:51;6.05;;;1.00;;
70369;SDS011;57790;51.356;-2.906;2024-02-21T04:27:52;5.87;;;0.90;;
70369;SDS011;57790;51.356;-2.906;2024-02-21T04:30:52;5.60;;;1.13;;
70369;SDS011;57790;51.356;-2.906;2024-02-21T04:33:52;5.30;;;1.00;;
70369;SDS011;57790;51.356;-2.906;2024-02-21T04:36:53;6.37;;;0.90;;
70369;SDS011;57790;51.356;-2.906;2024-02-21T04:39:53;5.50;;;1.20;;
70369;SDS011;57790;51.356;-2.906;2024-02-21T04:42:54;4.73;;;0.87;;
70369;SDS011;57790;51.356;-2.906;2024-02-21T04:45:54;6.00;;;0.90;;
70369;SDS011;57790;51.356;-2.906;2024-02-21T04:48:54;6.00;;;0.90;;
70369;SDS011;57790;51.356;-2.906;2024-02-21T04:51:55;5.38;;;1.10;;
70369;SDS011;57790;51.356;-2.906;2024-02-21T04:54:56;4.30;;;0.80;;
70369;SDS011;57790;51.356;-2.906;2024-02-21T04:57:56;5.97;;;1.23;;
70369;SDS011;57790;51.356;-2.906;2024-02-21T05:00:57;3.83;;;0.88;;
70369;SDS011;57790;51.356;-2.906;2024-02-21T05:03:58;6.93;;;1.00;;
70369;SDS011;57790;51.356;-2.906;2024-02-21T05:06:59;4.97;;;1.00;;
70369;SDS011;57790;51.356;-2.906;2024-02-21T05:10:00;4.68;;;1.00;;
70369;SDS011;57790;51.356;-2.906;2024-02-21T05:13:01;4.35;;;0.90;;
70369;SDS011;57790;51.356;-2.906;2024-02-21T05:16:01;6.50;;;1.10;;
70369;SDS011;57790;51.356;-2.906;2024-02-21T05:19:02;5.95;;;1.00;;
70369;SDS011;57790;51.356;-2.906;2024-02-21T05:22:04;3.25;;;0.70;;
70369;SDS011;57790;51.356;-2.906;2024-02-21T05:25:04;5.70;;;1.00;;
70369;SDS011;57790;51.356;-2.906;2024-02-21T05:28:06;6.53;;;0.85;;
70369;SDS011;57790;51.356;-2.906;2024-02-21T05:31:06;3.57;;;1.07;;
70369;SDS011;57790;51.356;-2.906;2024-02-21T05:34:06;4.30;;;0.70;;
70369;SDS011;57790;51.356;-2.906;2024-02-21T05:37:07;7.87;;;1.00;;
70369;SDS011;57790;51.356;-2.906;2024-02-21T05:40:07;5.20;;;0.80;;
70369;SDS011;57790;51.356;-2.906;2024-02-21T05:43:08;4.25;;;0.70;;
70369;SDS011;57790;51.356;-2.906;2024-02-21T05:46:09;6.13;;;1.10;;
70369;SDS011;57790;51.356;-2.906;2024-02-21T05:49:09;4.93;;;0.88;;
70369;SDS011;57790;51.356;-2.906;2024-02-21T05:52:09;6.07;;;0.60;;
70369;SDS011;57790;51.356;-2.906;2024-02-21T05:55:10;6.27;;;0.80;;
70369;SDS011;57790;51.356;-2.906;2024-02-21T05:58:10;3.77;;;0.57;;
70369;SDS011;57790;51.356;-2.906;2024-02-21T06:01:13;5.45;;;1.33;;
70369;SDS011;57790;51.356;-2.906;2024-02-21T06:04:14;4.27;;;0.77;;
70369;SDS011;57790;51.356;-2.906;2024-02-21T06:07:14;5.03;;;0.90;;
70369;SDS011;57790;51.356;-2.906;2024-02-21T06:10:14;5.67;;;0.90;;
70369;SDS011;57790;51.356;-2.906;2024-02-21T06:13:15;4.57;;;1.00;;
70369;SDS011;57790;51.356;-2.906;2024-02-21T06:16:15;2.77;;;0.60;;
70369;SDS011;57790;51.356;-2.906;2024-02-21T06:19:15;5.10;;;0.90;;
70369;SDS011;57790;51.356;-2.906;2024-02-21T06:22:16;5.27;;;0.77;;
70369;SDS011;57790;51.356;-2.906;2024-02-21T06:25:16;6.30;;;0.70;;
70369;SDS011;57790;51.356;-2.906;2024-02-21T06:28:17;4.03;;;0.73;;
70369;SDS011;57790;51.356;-2.906;2024-02-21T06:31:17;3.77;;;0.70;;
70369;SDS011;57790;51.356;-2.906;2024-02-21T06:34:18;3.43;;;0.70;;
70369;SDS011;57790;51.356;-2.906;2024-02-21T06:37:18;6.20;;;1.00;;
70369;SDS011;57790;51.356;-2.906;2024-02-21T06:40:22;5.30;;;0.73;;
70369;SDS011;57790;51.356;-2.906;2024-02-21T06:43:23;7.25;;;0.93;;
70369;SDS011;57790;51.356;-2.906;2024-02-21T06:46:24;4.33;;;0.90;;
70369;SDS011;57790;51.356;-2.906;2024-02-21T06:49:26;5.95;;;0.80;;
70369;SDS011;57790;51.356;-2.906;2024-02-21T06:52:26;6.40;;;0.80;;
70369;SDS011;57790;51.356;-2.906;2024-02-21T06:55:26;6.57;;;0.75;;
70369;SDS011;57790;51.356;-2.906;2024-02-21T06:58:27;4.50;;;0.90;;
70369;SDS011;57790;51.356;-2.906;2024-02-21T07:01:27;5.07;;;0.70;;
70369;SDS011;57790;51.356;-2.906;2024-02-21T07:04:27;4.07;;;0.80;;
70369;SDS011;57790;51.356;-2.906;2024-02-21T07:07:29;4.32;;;0.80;;
70369;SDS011;57790;51.356;-2.906;2024-02-21T07:10:29;4.80;;;0.90;;
70369;SDS011;57790;51.356;-2.906;2024-02-21T07:13:30;6.20;;;0.90;;
70369;SDS011;57790;51.356;-2.906;2024-02-21T07:16:30;3.03;;;0.88;;
70369;SDS011;57790;51.356;-2.906;2024-02-21T07:19:32;3.77;;;1.00;;
70369;SDS011;57790;51.356;-2.906;2024-02-21T07:22:35;5.93;;;0.85;;
70369;SDS011;57790;51.356;-2.906;2024-02-21T07:25:36;5.53;;;0.90;;
70369;SDS011;57790;51.356;-2.906;2024-02-21T07:28:36;3.57;;;0.80;;
70369;SDS011;57790;51.356;-2.906;2024-02-21T07:31:43;4.80;;;0.80;;
70369;SDS011;57790;51.356;-2.906;2024-02-21T07:34:44;4.03;;;0.70;;
70369;SDS011;57790;51.356;-2.906;2024-02-21T07:37:44;7.87;;;1.13;;
70369;SDS011;57790;51.356;-2.906;2024-02-21T07:40:45;3.25;;;0.63;;
70369;SDS011;57790;51.356;-2.906;2024-02-21T07:43:45;3.40;;;0.70;;
70369;SDS011;57790;51.356;-2.906;2024-02-21T07:46:45;4.83;;;0.80;;
70369;SDS011;57790;51.356;-2.906;2024-02-21T07:49:46;5.40;;;0.70;;
70369;SDS011;57790;51.356;-2.906;2024-02-21T07:52:46;6.07;;;0.70;;
70369;SDS011;57790;51.356;-2.906;2024-02-21T07:55:47;5.77;;;0.70;;
70369;SDS011;57790;51.356;-2.906;2024-02-21T07:58:47;4.67;;;1.00;;
70369;SDS011;57790;51.356;-2.906;2024-02-21T08:01:47;6.67;;;1.20;;
70369;SDS011;57790;51.356;-2.906;2024-02-21T08:04:48;8.27;;;0.73;;
70369;SDS011;57790;51.356;-2.906;2024-02-21T08:07:48;5.83;;;0.70;;
70369;SDS011;57790;51.356;-2.906;2024-02-21T08:10:49;5.78;;;0.90;;
70369;SDS011;57790;51.356;-2.906;2024-02-21T08:13:49;4.43;;;0.70;;
70369;SDS011;57790;51.356;-2.906;2024-02-21T08:16:50;3.10;;;0.60;;
70369;SDS011;57790;51.356;-2.906;2024-02-21T08:19:53;4.20;;;0.68;;
70369;SDS011;57790;51.356;-2.906;2024-02-21T08:22:53;4.03;;;0.70;;
70369;SDS011;57790;51.356;-2.906;2024-02-21T08:25:53;5.30;;;0.70;;
70369;SDS011;57790;51.356;-2.906;2024-02-21T08:28:54;3.63;;;0.80;;
70369;SDS011;57790;51.356;-2.906;2024-02-21T08:31:55;2.70;;;0.67;;
70369;SDS011;57790;51.356;-2.906;2024-02-21T08:34:55;4.73;;;0.83;;
70369;SDS011;57790;51.356;-2.906;2024-02-21T08:37:55;3.87;;;0.60;;
70369;SDS011;57790;51.356;-2.906;2024-02-21T08:40:56;7.57;;;0.70;;
70369;SDS011;57790;51.356;-2.906;2024-02-21T08:43:56;4.73;;;0.43;;
70369;SDS011;57790;51.356;-2.906;2024-02-21T08:46:57;3.90;;;0.82;;
70369;SDS011;57790;51.356;-2.906;2024-02-21T08:49:57;5.57;;;0.70;;
70369;SDS011;57790;51.356;-2.906;2024-02-21T08:52:57;2.97;;;0.50;;
70369;SDS011;57790;51.356;-2.906;2024-02-21T08:55:58;2.53;;;0.60;;
70369;SDS011;57790;51.356;-2.906;2024-02-21T08:58:59;3.80;;;0.63;;
70369;SDS011;57790;51.356;-2.906;2024-02-21T09:01:59;3.27;;;0.50;;
70369;SDS011;57790;51.356;-2.906;2024-02-21T09:04:59;4.33;;;0.50;;
70369;SDS011;57790;51.356;-2.906;2024-02-21T09:08:00;5.23;;;0.70;;
70369;SDS011;57790;51.356;-2.906;2024-02-21T09:11:00;3.60;;;0.47;;
70369;SDS011;57790;51.356;-2.906;2024-02-21T09:14:01;2.27;;;0.43;;
70369;SDS011;57790;51.356;-2.906;2024-02-21T09:17:03;2.50;;;0.40;;
70369;SDS011;57790;51.356;-2.906;2024-02-21T09:20:04;3.13;;;0.50;;
70369;SDS011;57790;51.356;-2.906;2024-02-21T09:23:06;1.63;;;0.50;;
70369;SDS011;57790;51.356;-2.906;2024-02-21T09:26:06;3.37;;;0.50;;
70369;SDS011;57790;51.356;-2.906;2024-02-21T09:29:08;1.40;;;0.50;;
70369;SDS011;57790;51.356;-2.906;2024-02-21T09:32:08;2.80;;;0.60;;
70369;SDS011;57790;51.356;-2.906;2024-02-21T09:35:08;1.17;;;0.50;;
70369;SDS011;57790;51.356;-2.906;2024-02-21T09:38:09;2.92;;;0.50;;
70369;SDS011;57790;51.356;-2.906;2024-02-21T09:44:17;2.45;;;0.50;;
70369;SDS011;57790;51.356;-2.906;2024-02-21T09:47:22;1.27;;;0.50;;
70369;SDS011;57790;51.356;-2.906;2024-02-21T09:50:24;1.92;;;0.40;;
70369;SDS011;57790;51.356;-2.906;2024-02-21T09:53:27;2.38;;;0.43;;
70369;SDS011;57790;51.356;-2.906;2024-02-21T09:56:28;2.70;;;0.30;;
70369;SDS011;57790;51.356;-2.906;2024-02-21T09:59:30;1.17;;;0.40;;
70369;SDS011;57790;51.356;-2.906;2024-02-21T10:02:31;0.77;;;0.30;;
70369;SDS011;57790;51.356;-2.906;2024-02-21T10:05:32;1.90;;;0.30;;
70369;SDS011;57790;51.356;-2.906;2024-02-21T10:08:34;1.57;;;0.50;;
70369;SDS011;57790;51.356;-2.906;2024-02-21T10:11:34;2.40;;;0.47;;
70369;SDS011;57790;51.356;-2.906;2024-02-21T10:14:36;2.40;;;0.40;;
70369;SDS011;57790;51.356;-2.906;2024-02-21T10:17:37;3.97;;;0.43;;
70369;SDS011;57790;51.356;-2.906;2024-02-21T10:20:37;1.73;;;0.30;;
70369;SDS011;57790;51.356;-2.906;2024-02-21T10:23:41;2.03;;;0.50;;
70369;SDS011;57790;51.356;-2.906;2024-02-21T10:26:45;1.25;;;0.40;;
70369;SDS011;57790;51.356;-2.906;2024-02-21T10:29:49;1.88;;;0.40;;
70369;SDS011;57790;51.356;-2.906;2024-02-21T10:32:51;2.45;;;0.38;;
70369;SDS011;57790;51.356;-2.906;2024-02-21T10:35:52;2.22;;;0.50;;
70369;SDS011;57790;51.356;-2.906;2024-02-21T10:38:53;0.90;;;0.30;;
70369;SDS011;57790;51.356;-2.906;2024-02-21T10:41:54;3.45;;;0.50;;
70369;SDS011;57790;51.356;-2.906;2024-02-21T10:45:00;1.10;;;0.30;;
70369;SDS011;57790;51.356;-2.906;2024-02-21T10:48:16;1.48;;;0.40;;
70369;SDS011;57790;51.356;-2.906;2024-02-21T10:51:26;1.25;;;0.40;;
70369;SDS011;57790;51.356;-2.906;2024-02-21T10:57:53;2.25;;;0.40;;
70369;SDS011;57790;51.356;-2.906;2024-02-21T11:00:54;2.17;;;0.40;;
70369;SDS011;57790;51.356;-2.906;2024-02-21T11:03:56;1.38;;;0.40;;
70369;SDS011;57790;51.356;-2.906;2024-02-21T11:06:58;1.65;;;0.50;;
70369;SDS011;57790;51.356;-2.906;2024-02-21T11:10:01;0.87;;;0.40;;
70369;SDS011;57790;51.356;-2.906;2024-02-21T11:13:10;3.33;;;0.37;;
70369;SDS011;57790;51.356;-2.906;2024-02-21T11:16:12;1.03;;;0.40;;
70369;SDS011;57790;51.356;-2.906;2024-02-21T11:19:22;1.40;;;0.40;;
70369;SDS011;57790;51.356;-2.906;2024-02-21T11:22:24;2.22;;;0.35;;
70369;SDS011;57790;51.356;-2.906;2024-02-21T11:25:29;2.33;;;0.47;;
70369;SDS011;57790;51.356;-2.906;2024-02-21T11:28:33;1.70;;;0.40;;
70369;SDS011;57790;51.356;-2.906;2024-02-21T11:31:39;1.47;;;0.40;;
70369;SDS011;57790;51.356;-2.906;2024-02-21T11:34:53;1.30;;;0.32;;
70369;SDS011;57790;51.356;-2.906;2024-02-21T11:37:57;2.03;;;0.60;;
70369;SDS011;57790;51.356;-2.906;2024-02-21T11:41:09;1.00;;;0.38;;
70369;SDS011;57790;51.356;-2.906;2024-02-21T11:44:09;1.00;;;0.50;;
70369;SDS011;57790;51.356;-2.906;2024-02-21T11:47:09;1.73;;;0.50;;
70369;SDS011;57790;51.356;-2.906;2024-02-21T11:50:10;2.03;;;0.40;;
70369;SDS011;57790;51.356;-2.906;2024-02-21T11:53:10;2.63;;;0.52;;
70369;SDS011;57790;51.356;-2.906;2024-02-21T11:56:11;1.30;;;0.40;;
70369;SDS011;57790;51.356;-2.906;2024-02-21T11:59:11;1.43;;;0.50;;
70369;SDS011;57790;51.356;-2.906;2024-02-21T12:02:12;1.37;;;0.40;;
70369;SDS011;57790;51.356;-2.906;2024-02-21T12:05:12;1.45;;;0.35;;
70369;SDS011;57790;51.356;-2.906;2024-02-21T12:08:13;1.13;;;0.50;;
70369;SDS011;57790;51.356;-2.906;2024-02-21T12:11:18;1.92;;;0.50;;
70369;SDS011;57790;51.356;-2.906;2024-02-21T12:14:21;4.05;;;0.52;;
70369;SDS011;57790;51.356;-2.906;2024-02-21T12:17:22;2.42;;;0.30;;
70369;SDS011;57790;51.356;-2.906;2024-02-21T12:20:23;1.60;;;0.40;;
70369;SDS011;57790;51.356;-2.906;2024-02-21T12:23:26;2.00;;;0.50;;
70369;SDS011;57790;51.356;-2.906;2024-02-21T12:26:27;1.08;;;0.30;;
70369;SDS011;57790;51.356;-2.906;2024-02-21T12:29:27;1.80;;;0.47;;
70369;SDS011;57790;51.356;-2.906;2024-02-21T12:32:29;1.98;;;0.40;;
70369;SDS011;57790;51.356;-2.906;2024-02-21T12:35:30;1.90;;;0.50;;
70369;SDS011;57790;51.356;-2.906;2024-02-21T12:38:31;1.65;;;0.40;;
70369;SDS011;57790;51.356;-2.906;2024-02-21T12:41:32;2.27;;;0.40;;
70369;SDS011;57790;51.356;-2.906;2024-02-21T12:44:33;1.30;;;0.40;;
70369;SDS011;57790;51.356;-2.906;2024-02-21T12:47:34;1.10;;;0.43;;
70369;SDS011;57790;51.356;-2.906;2024-02-21T12:50:34;1.43;;;0.50;;
70369;SDS011;57790;51.356;-2.906;2024-02-21T12:53:34;1.00;;;0.40;;
70369;SDS011;57790;51.356;-2.906;2024-02-21T12:56:35;1.73;;;0.57;;
70369;SDS011;57790;51.356;-2.906;2024-02-21T12:59:35;1.00;;;0.40;;
70369;SDS011;57790;51.356;-2.906;2024-02-21T13:02:36;1.83;;;0.40;;
70369;SDS011;57790;51.356;-2.906;2024-02-21T13:05:36;1.00;;;0.40;;
70369;SDS011;57790;51.356;-2.906;2024-02-21T13:08:37;0.87;;;0.37;;
70369;SDS011;57790;51.356;-2.906;2024-02-21T13:11:38;2.23;;;0.60;;
70369;SDS011;57790;51.356;-2.906;2024-02-21T13:14:40;1.00;;;0.40;;
70369;SDS011;57790;51.356;-2.906;2024-02-21T13:17:44;3.97;;;0.70;;
70369;SDS011;57790;51.356;-2.906;2024-02-21T13:20:44;1.65;;;0.35;;
70369;SDS011;57790;51.356;-2.906;2024-02-21T13:23:44;1.83;;;0.40;;
70369;SDS011;57790;51.356;-2.906;2024-02-21T13:26:45;1.93;;;0.50;;
70369;SDS011;57790;51.356;-2.906;2024-02-21T13:29:45;1.57;;;0.60;;
70369;SDS011;57790;51.356;-2.906;2024-02-21T13:32:46;1.53;;;0.50;;
70369;SDS011;57790;51.356;-2.906;2024-02-21T13:35:46;1.07;;;0.30;;
70369;SDS011;57790;51.356;-2.906;2024-02-21T13:38:46;2.03;;;0.40;;
70369;SDS011;57790;51.356;-2.906;2024-02-21T13:41:47;1.10;;;0.40;;
70369;SDS011;57790;51.356;-2.906;2024-02-21T13:44:48;1.00;;;0.50;;
70369;SDS011;57790;51.356;-2.906;2024-02-21T13:47:48;2.73;;;0.50;;
70369;SDS011;57790;51.356;-2.906;2024-02-21T13:50:49;1.33;;;0.43;;
70369;SDS011;57790;51.356;-2.906;2024-02-21T13:53:49;1.90;;;0.47;;
70369;SDS011;57790;51.356;-2.906;2024-02-21T13:56:50;1.43;;;0.30;;
70369;SDS011;57790;51.356;-2.906;2024-02-21T13:59:50;2.53;;;0.67;;
70369;SDS011;57790;51.356;-2.906;2024-02-21T14:02:51;2.05;;;0.50;;
70369;SDS011;57790;51.356;-2.906;2024-02-21T14:05:51;3.50;;;0.53;;
70369;SDS011;57790;51.356;-2.906;2024-02-21T14:08:52;9.45;;;0.80;;
70369;SDS011;57790;51.356;-2.906;2024-02-21T14:11:52;4.70;;;0.77;;
70369;SDS011;57790;51.356;-2.906;2024-02-21T14:14:54;5.47;;;0.93;;
70369;SDS011;57790;51.356;-2.906;2024-02-21T14:17:57;5.90;;;0.80;;
70369;SDS011;57790;51.356;-2.906;2024-02-21T14:20:57;8.53;;;0.83;;
70369;SDS011;57790;51.356;-2.906;2024-02-21T14:23:57;8.27;;;0.97;;
70369;SDS011;57790;51.356;-2.906;2024-02-21T14:26:58;10.03;;;1.30;;
70369;SDS011;57790;51.356;-2.906;2024-02-21T14:29:59;6.25;;;0.80;;
70369;SDS011;57790;51.356;-2.906;2024-02-21T14:33:00;7.40;;;0.87;;
70369;SDS011;57790;51.356;-2.906;2024-02-21T14:36:00;7.20;;;1.43;;
70369;SDS011;57790;51.356;-2.906;2024-02-21T14:39:02;11.50;;;1.77;;
70369;SDS011;57790;51.356;-2.906;2024-02-21T14:42:04;10.93;;;1.08;;
70369;SDS011;57790;51.356;-2.906;2024-02-21T14:45:05;8.53;;;1.30;;
70369;SDS011;57790;51.356;-2.906;2024-02-21T14:48:06;11.27;;;1.23;;
70369;SDS011;57790;51.356;-2.906;2024-02-21T14:51:07;9.33;;;1.53;;
70369;SDS011;57790;51.356;-2.906;2024-02-21T14:54:07;9.60;;;1.30;;
70369;SDS011;57790;51.356;-2.906;2024-02-21T14:57:08;10.43;;;1.20;;
70369;SDS011;57790;51.356;-2.906;2024-02-21T15:00:08;12.77;;;1.40;;
70369;SDS011;57790;51.356;-2.906;2024-02-21T15:03:10;11.50;;;1.42;;
70369;SDS011;57790;51.356;-2.906;2024-02-21T15:06:11;13.50;;;1.47;;
70369;SDS011;57790;51.356;-2.906;2024-02-21T15:09:11;15.27;;;1.50;;
70369;SDS011;57790;51.356;-2.906;2024-02-21T15:12:12;13.83;;;1.60;;
70369;SDS011;57790;51.356;-2.906;2024-02-21T15:15:13;14.23;;;1.70;;
70369;SDS011;57790;51.356;-2.906;2024-02-21T15:18:14;16.90;;;2.28;;
70369;SDS011;57790;51.356;-2.906;2024-02-21T15:21:18;10.35;;;1.40;;
70369;SDS011;57790;51.356;-2.906;2024-02-21T15:24:19;16.40;;;1.87;;
70369;SDS011;57790;51.356;-2.906;2024-02-21T15:27:19;15.65;;;2.05;;
70369;SDS011;57790;51.356;-2.906;2024-02-21T15:30:20;15.87;;;2.30;;
70369;SDS011;57790;51.356;-2.906;2024-02-21T15:33:20;12.73;;;1.37;;
70369;SDS011;57790;51.356;-2.906;2024-02-21T15:36:21;16.00;;;2.27;;
70369;SDS011;57790;51.356;-2.906;2024-02-21T15:39:21;18.60;;;2.10;;
70369;SDS011;57790;51.356;-2.906;2024-02-21T15:42:21;18.05;;;1.70;;
70369;SDS011;57790;51.356;-2.906;2024-02-21T15:45:22;13.37;;;1.50;;
70369;SDS011;57790;51.356;-2.906;2024-02-21T15:48:22;12.57;;;1.77;;
70369;SDS011;57790;51.356;-2.906;2024-02-21T15:51:22;14.57;;;1.70;;
70369;SDS011;57790;51.356;-2.906;2024-02-21T15:54:23;15.10;;;2.40;;
70369;SDS011;57790;51.356;-2.906;2024-02-21T15:57:25;13.43;;;2.00;;
70369;SDS011;57790;51.356;-2.906;2024-02-21T16:00:25;16.83;;;1.70;;
70369;SDS011;57790;51.356;-2.906;2024-02-21T16:03:26;14.55;;;2.00;;
70369;SDS011;57790;51.356;-2.906;2024-02-21T16:06:26;22.03;;;2.83;;
70369;SDS011;57790;51.356;-2.906;2024-02-21T16:09:37;14.03;;;1.73;;
70369;SDS011;57790;51.356;-2.906;2024-02-21T16:12:38;14.77;;;1.80;;
70369;SDS011;57790;51.356;-2.906;2024-02-21T16:15:41;10.55;;;1.77;;
70369;SDS011;57790;51.356;-2.906;2024-02-21T16:18:42;14.50;;;1.80;;
70369;SDS011;57790;51.356;-2.906;2024-02-21T16:21:43;12.70;;;1.30;;
70369;SDS011;57790;51.356;-2.906;2024-02-21T16:24:43;16.37;;;1.67;;
70369;SDS011;57790;51.356;-2.906;2024-02-21T16:27:44;12.63;;;1.80;;
70369;SDS011;57790;51.356;-2.906;2024-02-21T16:30:44;11.93;;;1.40;;
70369;SDS011;57790;51.356;-2.906;2024-02-21T16:33:45;12.40;;;1.37;;
70369;SDS011;57790;51.356;-2.906;2024-02-21T16:36:45;18.27;;;2.30;;
70369;SDS011;57790;51.356;-2.906;2024-02-21T16:39:46;14.80;;;1.63;;
70369;SDS011;57790;51.356;-2.906;2024-02-21T16:42:46;14.53;;;1.90;;
70369;SDS011;57790;51.356;-2.906;2024-02-21T16:45:49;13.85;;;1.52;;
70369;SDS011;57790;51.356;-2.906;2024-02-21T16:48:51;13.83;;;2.57;;
70369;SDS011;57790;51.356;-2.906;2024-02-21T16:51:51;13.57;;;1.50;;
70369;SDS011;57790;51.356;-2.906;2024-02-21T16:54:52;14.50;;;1.57;;
70369;SDS011;57790;51.356;-2.906;2024-02-21T16:57:52;10.20;;;1.70;;
70369;SDS011;57790;51.356;-2.906;2024-02-21T17:00:53;12.83;;;1.70;;
70369;SDS011;57790;51.356;-2.906;2024-02-21T17:03:54;12.45;;;1.42;;
70369;SDS011;57790;51.356;-2.906;2024-02-21T17:06:55;11.40;;;1.07;;
70369;SDS011;57790;51.356;-2.906;2024-02-21T17:09:56;8.18;;;1.38;;
70369;SDS011;57790;51.356;-2.906;2024-02-21T17:12:59;14.40;;;1.40;;
70369;SDS011;57790;51.356;-2.906;2024-02-21T17:15:59;11.23;;;1.43;;
70369;SDS011;57790;51.356;-2.906;2024-02-21T17:19:04;9.10;;;1.27;;
70369;SDS011;57790;51.356;-2.906;2024-02-21T17:22:07;9.38;;;1.13;;
70369;SDS011;57790;51.356;-2.906;2024-02-21T17:25:07;10.03;;;1.60;;
70369;SDS011;57790;51.356;-2.906;2024-02-21T17:28:12;12.98;;;1.70;;
70369;SDS011;57790;51.356;-2.906;2024-02-21T17:31:12;9.43;;;1.43;;
70369;SDS011;57790;51.356;-2.906;2024-02-21T17:34:13;9.43;;;1.13;;
70369;SDS011;57790;51.356;-2.906;2024-02-21T17:37:13;9.73;;;1.40;;
70369;SDS011;57790;51.356;-2.906;2024-02-21T17:40:14;10.53;;;1.30;;
70369;SDS011;57790;51.356;-2.906;2024-02-21T17:43:17;8.02;;;0.90;;
70369;SDS011;57790;51.356;-2.906;2024-02-21T17:46:17;10.10;;;1.47;;
70369;SDS011;57790;51.356;-2.906;2024-02-21T17:49:17;8.93;;;1.10;;
70369;SDS011;57790;51.356;-2.906;2024-02-21T17:52:20;9.93;;;1.27;;
70369;SDS011;57790;51.356;-2.906;2024-02-21T17:55:20;10.35;;;1.17;;
70369;SDS011;57790;51.356;-2.906;2024-02-21T17:58:21;11.20;;;1.33;;
70369;SDS011;57790;51.356;-2.906;2024-02-21T18:01:22;12.18;;;1.60;;